Time;durP1;ratioP1;P1;durP2;ratioP2;P2;SDS_P1;SDS_P2;PMS_P1;PMS_P2;Temp;Humidity;BMP_temperature;BMP_pressure;BME280_temperature;BME280_humidity;BME280_pressure;Samples;Min_cycle;Max_cycle;Signal;HPM_P1;HPM_P2
2022/09/22 00:01:20;;;;;;;5.80;5.20;;;6.10;99.90;;;5.76;89.74;98746.66;5072260;28;20518;-78
2022/09/22 00:03:51;;;;;;;8.37;5.20;;;6.00;99.90;;;5.71;89.83;98751.69;5059797;28;20523;-72
2022/09/22 00:06:20;;;;;;;4.93;4.50;;;6.00;99.90;;;5.63;89.73;98742.59;5064171;28;20449;-73
2022/09/22 00:08:50;;;;;;;7.50;5.40;;;5.90;99.90;;;5.63;90.05;98749.81;5061336;28;20468;-75
2022/09/22 00:11:20;;;;;;;5.97;5.20;;;5.90;99.90;;;5.48;89.57;98730.84;5085823;28;21073;-72
2022/09/22 00:13:51;;;;;;;6.43;5.80;;;5.80;99.90;;;5.49;89.74;98746.78;5063836;28;20455;-73
2022/09/22 00:16:23;;;;;;;7.07;5.70;;;5.70;99.90;;;5.17;89.87;98723.41;5072232;28;20469;-77
2022/09/22 00:18:50;;;;;;;6.67;6.03;;;5.50;99.90;;;5.28;90.70;98739.19;5069530;28;20910;-74
2022/09/22 00:21:20;;;;;;;6.37;4.80;;;5.50;99.90;;;5.26;90.64;98751.94;5071149;28;21275;-73
2022/09/22 00:23:48;;;;;;;8.00;5.43;;;5.40;99.90;;;5.25;90.77;98750.25;5070408;28;20445;-73
2022/09/22 00:26:18;;;;;;;6.07;5.50;;;5.30;99.90;;;5.26;90.39;98741.22;5068617;28;20459;-74
2022/09/22 00:28:48;;;;;;;6.27;4.93;;;5.30;99.90;;;5.23;90.79;98737.00;5070948;28;20521;-73
2022/09/22 00:31:19;;;;;;;10.10;6.10;;;5.30;99.90;;;5.27;89.97;98737.53;5063821;28;20878;-75
2022/09/22 00:33:47;;;;;;;7.07;5.37;;;5.40;99.90;;;5.22;90.20;98738.00;5075822;28;20464;-74
2022/09/22 00:36:16;;;;;;;7.03;6.27;;;5.40;99.90;;;5.05;90.23;98733.59;5069828;28;20557;-75
2022/09/22 00:38:44;;;;;;;6.80;5.43;;;5.30;99.90;;;5.12;90.31;98731.13;5070034;28;20453;-75
2022/09/22 00:41:22;;;;;;;8.80;5.90;;;5.20;99.90;;;5.02;90.69;98734.75;5052765;28;20450;-73
2022/09/22 00:44:11;;;;;;;8.17;6.50;;;5.20;99.90;;;4.72;90.76;98702.19;5069955;28;20453;-75
2022/09/22 00:46:42;;;;;;;11.20;5.80;;;5.10;99.90;;;4.85;90.88;98727.66;5067431;28;20572;-73
2022/09/22 00:49:12;;;;;;;10.17;7.07;;;5.00;99.90;;;4.40;91.97;98663.56;5069123;28;20568;-74
2022/09/22 00:51:43;;;;;;;8.33;6.70;;;5.00;99.90;;;4.70;92.77;98730.09;5060128;28;20840;-76
2022/09/22 00:54:14;;;;;;;7.73;6.90;;;4.90;99.90;;;4.66;92.01;98717.03;5065754;28;20449;-73
2022/09/22 00:56:48;;;;;;;11.20;6.87;;;4.80;99.90;;;4.72;91.92;98726.28;5070043;28;20468;-75
2022/09/22 00:59:20;;;;;;;9.43;7.33;;;4.80;99.90;;;4.68;91.66;98724.91;5060642;28;20458;-73
2022/09/22 01:01:49;;;;;;;8.53;6.40;;;4.80;99.90;;;4.61;91.74;98711.34;5066133;28;21303;-71
2022/09/22 01:04:17;;;;;;;10.23;8.10;;;4.80;99.90;;;4.77;92.14;98726.63;5063308;28;21031;-72
2022/09/22 01:06:45;;;;;;;7.50;6.80;;;4.80;99.90;;;4.92;91.52;98726.88;5064980;28;20473;-75
2022/09/22 01:09:13;;;;;;;7.80;6.90;;;5.00;99.90;;;4.92;90.40;98726.00;5077047;28;20464;-75
2022/09/22 01:11:42;;;;;;;8.10;6.70;;;5.10;99.90;;;4.87;90.67;98721.16;5052478;28;21352;-74
2022/09/22 01:14:25;;;;;;;10.77;6.30;;;5.10;99.90;;;4.81;90.75;98711.94;5057619;28;20998;-74
2022/09/22 01:17:02;;;;;;;8.23;6.30;;;5.10;99.90;;;4.72;91.83;98712.88;5061920;28;20547;-74
2022/09/22 01:20:16;;;;;;;7.60;6.43;;;5.10;99.90;;;4.98;91.75;98722.69;5064400;28;20544;-77
2022/09/22 01:23:27;;;;;;;11.70;6.57;;;5.20;99.90;;;4.96;91.28;98711.31;4995238;28;20931;-73
2022/09/22 01:26:21;;;;;;;8.83;6.30;;;5.30;99.90;;;4.91;91.82;98716.31;5063035;28;20890;-75
2022/09/22 01:29:23;;;;;;;6.60;5.90;;;5.20;99.90;;;4.89;91.42;98707.59;5061567;28;20507;-78
2022/09/22 01:32:03;;;;;;;7.27;5.43;;;5.10;99.90;;;4.81;91.27;98711.94;5054238;28;20448;-72
2022/09/22 01:34:35;;;;;;;6.00;5.40;;;5.00;99.90;;;4.72;91.42;98707.53;5063535;28;20456;-74
2022/09/22 01:37:12;;;;;;;5.67;5.10;;;4.90;99.90;;;4.60;91.76;98704.31;5058980;28;20921;-73
2022/09/22 01:39:43;;;;;;;5.20;4.70;;;4.80;99.90;;;4.74;91.49;98707.38;5065455;28;20948;-78
2022/09/22 01:42:18;;;;;;;8.60;5.50;;;4.80;99.90;;;4.67;91.40;98710.69;5057693;28;20569;-73
2022/09/22 01:44:52;;;;;;;6.17;5.43;;;4.80;99.90;;;4.66;90.99;98708.19;5060135;28;20498;-75
2022/09/22 01:47:27;;;;;;;10.07;5.90;;;4.80;99.90;;;4.68;91.23;98693.63;5060802;28;20911;-76
2022/09/22 01:50:00;;;;;;;6.70;5.63;;;4.80;99.90;;;4.78;91.49;98696.19;5070696;28;21034;-76
2022/09/22 01:52:31;;;;;;;13.47;6.13;;;5.00;99.90;;;4.57;91.62;98677.03;5065345;28;20488;-71
2022/09/22 01:55:03;;;;;;;7.73;5.50;;;4.90;99.90;;;4.65;91.26;98706.50;5056476;28;20467;-77
2022/09/22 01:57:38;;;;;;;8.30;6.77;;;4.80;99.90;;;4.63;92.05;98708.50;5070398;28;20524;-76
2022/09/22 02:00:09;;;;;;;6.93;5.90;;;4.80;99.90;;;4.55;91.77;98701.28;5069101;28;20530;-74
2022/09/22 02:02:43;;;;;;;7.90;6.77;;;4.70;99.90;;;4.47;92.17;98683.31;5060998;28;20476;-73
2022/09/22 02:05:17;;;;;;;8.13;6.53;;;4.70;99.90;;;4.49;91.51;98697.41;5065185;28;20457;-74
2022/09/22 02:07:50;;;;;;;8.77;5.67;;;4.70;99.90;;;4.44;91.42;98689.00;5064122;28;20456;-74
2022/09/22 02:10:22;;;;;;;9.57;5.73;;;4.70;99.90;;;4.36;91.86;98683.63;5072498;28;20456;-74
2022/09/22 02:12:49;;;;;;;6.50;5.90;;;4.60;99.90;;;4.36;92.01;98697.81;5058089;28;20544;-73
2022/09/22 02:18:09;;;;;;;7.40;5.97;;;4.60;99.90;;;4.28;92.34;98688.91;5077242;28;21060;-73
2022/09/22 02:20:37;;;;;;;6.17;5.63;;;4.50;99.90;;;4.32;91.94;98690.25;5058643;28;20461;-73
2022/09/22 02:23:04;;;;;;;5.90;5.07;;;4.50;99.90;;;4.27;92.71;98692.59;5067053;28;20553;-73
2022/09/22 02:25:32;;;;;;;8.67;6.37;;;4.40;99.90;;;4.24;92.17;98705.28;5093734;28;20547;-75
2022/09/22 02:27:59;;;;;;;11.10;5.73;;;4.40;99.90;;;4.23;92.72;98686.69;5059223;28;20924;-73
2022/09/22 02:30:27;;;;;;;6.70;5.90;;;4.40;99.90;;;4.26;92.59;98691.75;5077395;28;21455;-72
2022/09/22 02:32:57;;;;;;;6.43;5.07;;;4.40;99.90;;;4.17;91.79;98685.53;5061086;28;20509;-72
2022/09/22 02:35:30;;;;;;;5.87;5.17;;;4.40;99.90;;;4.15;92.29;98695.53;5059835;28;20493;-72
2022/09/22 02:38:04;;;;;;;8.10;5.30;;;4.30;99.90;;;4.07;92.87;98682.09;5070747;28;20460;-76
2022/09/22 02:40:39;;;;;;;5.80;5.30;;;4.30;99.90;;;4.09;92.69;98691.66;5066623;28;20510;-73
2022/09/22 02:43:13;;;;;;;7.50;5.00;;;4.20;99.90;;;4.06;91.92;98693.81;5050869;28;21103;-73
2022/09/22 02:45:50;;;;;;;6.00;5.43;;;4.20;99.90;;;4.11;92.95;98699.50;5051286;28;20461;-72
2022/09/22 02:48:22;;;;;;;6.90;5.30;;;4.20;99.90;;;4.13;92.37;98689.50;5090628;28;20545;-72
2022/09/22 02:50:52;;;;;;;6.57;5.93;;;4.30;99.90;;;4.28;91.29;98694.25;5061155;28;20461;-77
2022/09/22 02:53:19;;;;;;;6.60;5.40;;;4.40;99.90;;;4.18;91.97;98695.22;5063195;28;20452;-72
2022/09/22 02:55:49;;;;;;;7.23;5.60;;;4.40;99.90;;;4.03;92.98;98696.81;5065502;28;20979;-75
2022/09/22 02:58:17;;;;;;;10.93;6.57;;;4.30;99.90;;;4.08;92.86;98695.31;5066480;28;20448;-74
2022/09/22 03:00:45;;;;;;;9.67;6.13;;;4.20;99.90;;;3.95;93.36;98695.72;5056236;28;20469;-74
2022/09/22 03:03:13;;;;;;;6.60;6.00;;;4.20;99.90;;;3.92;93.25;98692.53;5062043;28;20896;-76
2022/09/22 03:05:40;;;;;;;6.73;5.47;;;4.10;99.90;;;3.92;93.39;98692.53;5063425;28;20449;-75
2022/09/22 03:08:08;;;;;;;10.37;7.03;;;4.10;99.90;;;3.93;92.93;98695.06;5072132;28;20492;-73
2022/09/22 03:10:36;;;;;;;7.10;6.00;;;4.10;99.90;;;3.90;92.55;98702.53;5063763;28;20449;-73
2022/09/22 03:13:03;;;;;;;6.93;5.73;;;4.10;99.90;;;3.90;92.95;98690.03;5056578;28;20519;-73
2022/09/22 03:15:31;;;;;;;8.30;6.27;;;4.10;99.90;;;3.84;92.68;98698.66;5080600;28;21104;-75
2022/09/22 03:17:58;;;;;;;6.40;5.80;;;4.00;99.90;;;3.75;91.81;98695.06;5079489;28;20873;-75
2022/09/22 03:20:25;;;;;;;10.23;6.00;;;4.00;99.90;;;3.67;92.32;98682.47;5067024;28;20459;-74
2022/09/22 03:22:52;;;;;;;7.30;5.83;;;3.90;99.90;;;3.59;92.64;98676.22;5069748;28;20508;-72
2022/09/22 03:25:21;;;;;;;6.20;5.60;;;3.80;99.90;;;3.74;91.89;98684.56;5068958;28;20513;-73
2022/09/22 03:27:48;;;;;;;5.70;5.13;;;3.90;99.90;;;3.56;92.18;98666.69;5071935;28;20495;-78
2022/09/22 03:30:15;;;;;;;7.93;6.13;;;3.90;99.90;;;3.53;91.97;98662.50;5062664;28;20461;-75
2022/09/22 03:32:45;;;;;;;8.40;6.10;;;3.90;99.90;;;3.53;92.30;98669.66;5062584;28;20479;-77
2022/09/22 03:35:12;;;;;;;8.77;6.70;;;3.80;99.90;;;3.39;93.41;98665.72;5062879;28;20436;-74
2022/09/22 03:37:39;;;;;;;8.97;6.37;;;3.70;99.90;;;3.54;93.25;98682.03;5063680;28;20498;-76
2022/09/22 03:40:07;;;;;;;8.37;6.27;;;3.70;99.90;;;3.57;93.16;98670.22;5066755;28;20452;-74
2022/09/22 03:42:36;;;;;;;9.93;5.90;;;3.80;99.90;;;3.73;92.40;98685.56;5055029;28;20488;-73
2022/09/22 03:45:04;;;;;;;11.53;5.67;;;3.90;99.90;;;3.67;91.95;98685.16;5066675;28;20492;-73
2022/09/22 03:47:31;;;;;;;6.93;6.20;;;3.90;99.90;;;3.41;92.41;98663.72;5066666;28;20484;-73
2022/09/22 03:49:58;;;;;;;9.27;6.50;;;3.80;99.90;;;3.56;92.72;98700.59;5070034;28;20551;-73
2022/09/22 03:52:26;;;;;;;10.40;6.27;;;3.80;99.90;;;3.57;92.76;98689.78;5065678;28;20456;-72
2022/09/22 03:54:53;;;;;;;6.47;5.83;;;3.70;99.90;;;3.71;92.44;98684.84;5064163;28;20472;-71
2022/09/22 03:57:20;;;;;;;7.57;5.57;;;3.80;99.90;;;3.64;92.11;98663.25;5067996;28;20585;-73
2022/09/22 03:59:49;;;;;;;8.70;6.07;;;3.90;99.90;;;3.84;91.97;98687.94;5067960;28;21023;-71
2022/09/22 04:02:17;;;;;;;9.10;5.97;;;4.00;99.90;;;3.93;91.46;98687.03;5070741;28;20452;-77
2022/09/22 04:04:44;;;;;;;6.77;6.20;;;4.10;99.90;;;3.97;90.45;98684.88;5059456;28;20508;-73
2022/09/22 04:07:13;;;;;;;7.37;6.13;;;4.20;99.90;;;3.87;90.65;98679.66;5067755;28;20449;-71
2022/09/22 04:09:41;;;;;;;8.70;6.13;;;4.10;99.90;;;3.87;90.96;98682.31;5064317;28;20460;-78
2022/09/22 04:12:08;;;;;;;6.87;5.80;;;4.10;99.90;;;3.89;91.12;98680.31;5063231;28;20483;-70
2022/09/22 04:14:36;;;;;;;6.87;6.27;;;4.10;99.90;;;3.83;90.49;98683.59;5052380;28;20461;-72
2022/09/22 04:17:05;;;;;;;7.73;5.63;;;4.10;99.90;;;3.74;90.94;98692.56;5068459;28;21152;-76
2022/09/22 04:19:34;;;;;;;6.43;5.83;;;4.00;99.90;;;3.52;91.22;98647.47;5069831;28;20445;-73
2022/09/22 04:22:01;;;;;;;9.27;6.43;;;3.90;99.90;;;3.65;91.03;98676.47;5050145;28;20504;-73
2022/09/22 04:24:28;;;;;;;7.20;6.00;;;3.90;99.90;;;3.69;91.14;98675.16;5063484;28;20546;-70
2022/09/22 04:26:56;;;;;;;10.50;5.57;;;3.90;99.90;;;3.68;90.54;98673.47;5067912;28;20541;-71
2022/09/22 04:29:23;;;;;;;7.20;6.10;;;3.90;99.90;;;3.61;91.12;98671.56;5056468;28;20459;-71
2022/09/22 04:31:50;;;;;;;8.33;5.10;;;3.80;99.90;;;3.62;91.12;98679.44;5060810;28;20571;-70
2022/09/22 04:34:19;;;;;;;6.50;5.90;;;3.80;99.90;;;3.55;91.40;98670.34;5056437;28;20459;-72
2022/09/22 04:36:46;;;;;;;6.10;5.50;;;3.80;99.90;;;3.54;91.37;98668.66;5060675;28;20543;-71
2022/09/22 04:39:13;;;;;;;9.27;6.10;;;3.70;99.90;;;3.55;91.85;98673.03;5080722;28;20762;-74
2022/09/22 04:41:40;;;;;;;7.60;6.50;;;3.70;99.90;;;3.50;91.83;98669.97;5063598;28;20709;-73
2022/09/22 04:44:08;;;;;;;6.80;6.23;;;3.70;99.90;;;3.58;91.72;98672.75;5061471;28;20855;-77
2022/09/22 04:46:35;;;;;;;9.03;6.67;;;3.70;99.90;;;3.59;91.45;98660.19;5059039;28;20457;-87
2022/09/22 04:49:02;;;;;;;7.80;6.20;;;3.80;99.90;;;3.71;90.54;98677.69;5096160;28;20457;-72
2022/09/22 04:51:31;;;;;;;7.00;6.30;;;3.80;99.90;;;3.69;90.49;98671.66;5056753;28;20465;-77
2022/09/22 04:53:58;;;;;;;8.47;6.10;;;3.90;99.90;;;3.68;90.82;98670.78;5066471;28;20811;-77
2022/09/22 04:56:26;;;;;;;7.40;6.20;;;3.90;99.90;;;3.65;90.50;98676.47;5062372;28;20459;-72
2022/09/22 04:58:53;;;;;;;10.20;6.27;;;3.90;99.90;;;3.69;90.72;98680.50;5062935;28;20473;-75
2022/09/22 05:01:20;;;;;;;9.43;6.63;;;3.90;99.90;;;3.69;90.65;98667.13;5060429;28;20541;-69
2022/09/22 05:03:47;;;;;;;10.60;7.20;;;3.90;99.90;;;3.82;89.87;98679.25;5057567;28;21037;-71
2022/09/22 05:06:14;;;;;;;7.80;7.10;;;4.00;99.90;;;3.86;90.16;98680.59;5064525;28;20964;-73
2022/09/22 05:08:43;;;;;;;7.73;6.73;;;4.10;99.90;;;3.75;91.42;98663.00;5069330;28;20483;-72
2022/09/22 05:11:11;;;;;;;8.50;7.40;;;4.10;99.90;;;3.75;91.88;98678.22;5058236;28;20442;-78
2022/09/22 05:13:39;;;;;;;12.50;6.83;;;4.10;99.90;;;3.64;92.85;98672.09;5063618;28;20464;-70
2022/09/22 05:16:07;;;;;;;9.47;6.77;;;4.10;99.90;;;3.78;93.12;98672.53;5064580;28;20461;-76
2022/09/22 05:18:34;;;;;;;7.17;6.43;;;4.20;99.90;;;3.92;92.11;98676.47;5066130;28;20527;-68
2022/09/22 05:21:02;;;;;;;8.50;6.47;;;4.30;99.90;;;3.85;91.72;98673.59;5056466;28;20532;-70
2022/09/22 05:23:31;;;;;;;7.87;6.80;;;4.30;99.90;;;3.83;91.95;98675.59;5060248;28;20487;-73
2022/09/22 05:26:00;;;;;;;10.63;7.67;;;4.30;99.90;;;3.79;92.53;98674.22;5064713;28;20464;-69
2022/09/22 05:28:28;;;;;;;10.03;7.23;;;4.30;99.90;;;3.88;92.57;98678.66;5055164;28;20583;-69
2022/09/22 05:30:55;;;;;;;7.73;6.37;;;4.30;99.90;;;3.95;91.97;98684.22;5054362;28;20478;-76
2022/09/22 05:33:24;;;;;;;9.20;6.73;;;4.30;99.90;;;4.02;91.21;98689.75;5057352;28;20551;-70
2022/09/22 05:35:51;;;;;;;7.80;6.13;;;4.40;99.90;;;4.13;91.19;98692.16;5060874;28;20472;-75
2022/09/22 05:38:18;;;;;;;8.83;6.20;;;4.40;99.90;;;4.06;90.35;98685.78;5060425;28;20495;-71
2022/09/22 05:40:46;;;;;;;6.70;5.97;;;4.50;99.90;;;4.03;90.52;98697.63;5059348;28;20458;-69
2022/09/22 05:43:15;;;;;;;7.10;6.17;;;4.40;99.90;;;3.94;90.96;98693.19;5058899;28;20458;-73
2022/09/22 05:45:43;;;;;;;8.17;6.50;;;4.40;99.90;;;4.02;90.86;98695.09;5056747;28;20461;-74
2022/09/22 05:48:11;;;;;;;8.70;6.63;;;4.40;99.90;;;4.04;90.22;98695.81;5062772;28;20830;-67
2022/09/22 05:50:38;;;;;;;10.50;7.30;;;4.40;99.90;;;4.09;90.38;98691.66;5065864;28;21149;-69
2022/09/22 05:53:07;;;;;;;8.90;7.00;;;4.50;99.90;;;4.01;89.78;98698.75;5059475;28;20546;-71
2022/09/22 05:55:35;;;;;;;9.83;6.80;;;4.40;99.90;;;4.02;90.08;98689.75;5057683;28;20493;-74
2022/09/22 05:58:03;;;;;;;6.87;6.23;;;4.50;99.90;;;4.05;89.89;98689.47;5060979;28;20543;-73
2022/09/22 06:00:32;;;;;;;8.77;6.70;;;4.50;99.90;;;3.89;90.29;98661.59;5052193;28;20456;-78
2022/09/22 06:03:00;;;;;;;9.20;6.93;;;4.50;99.90;;;4.17;90.13;98696.22;5060455;28;20778;-70
2022/09/22 06:05:27;;;;;;;8.40;7.40;;;4.50;99.90;;;4.25;88.84;98690.91;5062424;28;20503;-72
2022/09/22 06:08:02;;;;;;;11.77;6.97;;;4.60;99.90;;;4.24;89.43;98693.72;5061302;28;20531;-73
2022/09/22 06:10:29;;;;;;;7.77;6.97;;;4.60;99.90;;;4.32;89.12;98695.63;5058189;28;20543;-70
2022/09/22 06:13:00;;;;;;;16.53;8.17;;;4.70;99.90;;;4.42;89.29;98691.00;5063923;28;20453;-75
2022/09/22 06:15:27;;;;;;;9.37;7.23;;;4.70;99.90;;;4.44;89.03;98694.34;5052037;28;20533;-73
2022/09/22 06:17:56;;;;;;;9.10;7.27;;;4.80;99.90;;;4.58;88.33;98700.09;5055168;28;20467;-82
2022/09/22 06:20:23;;;;;;;8.33;7.27;;;4.90;99.90;;;4.65;87.72;98703.84;5055835;28;21012;-75
2022/09/22 06:22:51;;;;;;;9.40;6.93;;;4.90;99.90;;;4.73;87.89;98711.88;5055529;28;20483;-71
2022/09/22 06:25:18;;;;;;;10.40;7.13;;;5.00;99.90;;;4.23;87.22;98617.16;5055332;28;20473;-69
2022/09/22 06:27:45;;;;;;;8.53;7.20;;;5.10;99.90;;;4.85;87.48;98715.09;5063979;28;20460;-71
2022/09/22 06:30:14;;;;;;;14.67;7.50;;;5.10;99.90;;;4.99;86.79;98708.31;5058729;28;20908;-71
2022/09/22 06:32:42;;;;;;;7.77;6.90;;;5.20;99.90;;;5.12;86.70;98697.13;5063021;28;20448;-69
2022/09/22 06:35:11;;;;;;;8.80;7.40;;;5.20;99.90;;;5.29;86.93;98706.03;5059562;28;20934;-75
2022/09/22 06:37:39;;;;;;;10.63;7.20;;;5.40;99.90;;;5.47;85.52;98705.91;5063345;28;20468;-80
2022/09/22 06:40:08;;;;;;;8.10;7.30;;;5.50;99.90;;;5.44;85.30;98716.94;5065638;28;20549;-72
2022/09/22 06:42:36;;;;;;;12.27;7.13;;;5.60;99.90;;;5.38;84.74;98707.75;5064965;28;21015;-73
2022/09/22 06:45:03;;;;;;;11.30;7.30;;;5.70;98.50;;;5.32;85.18;98708.38;5058997;28;20568;-72
2022/09/22 06:47:32;;;;;;;13.80;9.20;;;5.70;96.90;;;5.45;85.08;98709.75;5064713;28;20453;-73
2022/09/22 06:50:04;;;;;;;9.93;7.67;;;5.70;97.70;;;5.65;83.90;98707.59;5060213;28;20468;-73
2022/09/22 06:52:33;;;;;;;9.27;6.77;;;5.80;97.10;;;5.85;84.15;98707.25;5053178;28;20464;-70
2022/09/22 06:55:00;;;;;;;10.10;7.80;;;6.00;97.80;;;6.15;85.76;98695.03;5041705;28;20685;-71
2022/09/22 06:57:31;;;;;;;11.00;8.07;;;6.30;99.90;;;6.12;82.79;98708.75;5055739;28;21051;-69
2022/09/22 06:59:59;;;;;;;14.00;7.90;;;6.40;95.60;;;5.76;81.71;98688.50;5052849;28;20465;-73
2022/09/22 07:02:27;;;;;;;17.93;8.83;;;6.30;93.20;;;6.09;82.53;98695.69;5058880;28;20449;-69
2022/09/22 07:04:57;;;;;;;8.40;7.30;;;6.40;94.00;;;6.28;82.59;98701.69;5064888;28;20487;-78
2022/09/22 07:07:27;;;;;;;9.70;7.70;;;6.50;94.10;;;6.46;81.94;98690.75;5092829;28;20590;-75
2022/09/22 07:09:55;;;;;;;10.83;7.93;;;6.60;94.40;;;6.53;81.41;98694.44;5056664;28;20461;-71
2022/09/22 07:12:24;;;;;;;10.73;8.20;;;6.70;93.50;;;6.61;81.39;98697.09;5063981;28;20951;-76
2022/09/22 07:14:55;;;;;;;9.53;8.47;;;6.80;93.20;;;6.50;80.92;98674.13;5056975;28;20463;-76
2022/09/22 07:17:22;;;;;;;10.30;8.50;;;6.80;92.40;;;6.60;79.51;98647.09;5057828;28;20456;-74
2022/09/22 07:19:50;;;;;;;10.80;8.13;;;7.00;93.10;;;6.98;80.81;98684.00;5064821;28;21175;-72
2022/09/22 07:22:18;;;;;;;13.00;8.80;;;7.10;93.70;;;7.24;80.83;98690.94;5064848;28;20460;-75
2022/09/22 07:24:45;;;;;;;11.57;8.17;;;7.30;94.30;;;7.17;78.89;98692.63;5082008;28;20505;-78
2022/09/22 07:27:21;;;;;;;17.23;8.83;;;7.30;90.80;;;7.27;78.37;98690.56;5066026;28;20453;-75
2022/09/22 07:29:48;;;;;;;10.87;8.03;;;7.50;91.10;;;7.05;79.18;98687.69;5065120;28;21252;-70
2022/09/22 07:32:16;;;;;;;11.63;8.37;;;7.40;90.10;;;7.37;78.94;98679.56;5060031;28;20557;-76
2022/09/22 07:34:43;;;;;;;8.90;7.67;;;7.50;90.90;;;7.62;77.85;98691.00;5057462;28;20497;-82
2022/09/22 07:37:12;;;;;;;11.53;8.47;;;7.70;90.70;;;7.75;77.08;98687.72;5057174;28;20459;-77
2022/09/22 07:39:39;;;;;;;10.23;7.90;;;7.80;89.90;;;7.89;77.49;98687.94;5073392;28;20445;-75
2022/09/22 07:42:06;;;;;;;13.40;8.23;;;7.90;90.50;;;7.98;76.62;98681.44;5069893;28;20467;-70
2022/09/22 07:48:34;;;;;;;11.13;8.63;;;8.20;86.80;;;8.12;75.57;98687.91;5090897;28;20451;-70
2022/09/22 07:50:08;;;;;;;8.43;7.70;;;8.30;87.40;;;7.99;75.82;98634.69;5060240;28;20471;-74
2022/09/22 07:52:35;;;;;;;8.53;7.60;;;8.40;87.60;;;8.31;74.78;98681.13;5062603;28;20452;-71
2022/09/22 07:55:03;;;;;;;11.20;7.70;;;8.50;86.20;;;8.52;75.10;98678.75;5090254;28;20465;-69
2022/09/22 07:57:31;;;;;;;10.97;8.23;;;8.60;86.70;;;8.67;74.63;98679.56;5057068;28;20458;-70
2022/09/22 07:59:59;;;;;;;10.40;7.80;;;8.80;86.80;;;8.64;74.53;98679.94;5062514;28;20481;-69
2022/09/22 08:02:27;;;;;;;11.40;8.93;;;8.90;85.60;;;8.37;75.51;98676.84;5061674;28;20458;-69
2022/09/22 08:05:02;;;;;;;9.33;8.43;;;8.70;85.40;;;8.64;75.30;98679.94;5059997;28;20480;-69
2022/09/22 08:07:35;;;;;;;9.20;8.13;;;8.80;86.10;;;8.92;74.12;98690.06;5057460;28;20543;-69
2022/09/22 08:10:02;;;;;;;11.97;9.60;;;9.00;86.50;;;9.18;73.24;98686.00;5064865;28;20499;-76
2022/09/22 08:12:30;;;;;;;23.40;14.10;;;9.10;86.10;;;8.96;73.99;98677.88;5062590;28;20457;-76
2022/09/22 08:14:57;;;;;;;14.33;9.60;;;9.30;84.70;;;8.93;74.64;98689.03;5057893;28;20540;-74
2022/09/22 08:17:25;;;;;;;11.57;9.13;;;9.20;84.70;;;9.27;73.43;98678.66;5060963;28;20965;-71
2022/09/22 08:19:52;;;;;;;9.40;8.20;;;9.40;84.50;;;9.27;72.96;98679.47;5055618;28;20504;-70
2022/09/22 08:22:19;;;;;;;11.17;7.73;;;9.50;84.10;;;9.64;72.70;98682.97;5055581;28;20920;-70
2022/09/22 08:24:46;;;;;;;9.90;7.77;;;9.70;84.30;;;9.62;71.72;98649.91;5054454;28;21002;-73
2022/09/22 08:27:14;;;;;;;9.40;8.27;;;9.80;83.60;;;9.87;72.43;98684.59;5066209;28;20459;-76
2022/09/22 08:29:42;;;;;;;11.03;8.93;;;9.90;83.90;;;9.86;71.11;98677.53;5065177;28;20452;-79
2022/09/22 08:32:10;;;;;;;9.37;7.53;;;10.00;82.40;;;10.03;70.68;98679.97;5064008;28;20527;-79
2022/09/22 08:34:38;;;;;;;9.50;7.30;;;10.10;82.10;;;10.14;70.35;98670.47;5059666;28;20484;-76
2022/09/22 08:37:05;;;;;;;8.70;7.80;;;10.20;81.90;;;10.36;69.74;98679.34;5052333;28;20583;-72
2022/09/22 08:39:35;;;;;;;9.43;7.80;;;10.40;81.70;;;10.42;69.77;98675.91;5091578;28;20468;-78
2022/09/22 08:42:13;;;;;;;9.30;7.37;;;10.40;81.60;;;10.55;68.80;98668.91;5059663;28;20991;-71
2022/09/22 08:44:53;;;;;;;15.03;6.80;;;10.60;81.30;;;10.74;68.20;98673.59;5061950;28;20566;-75
2022/09/22 08:53:22;;;;;;;10.40;7.17;;;10.80;80.00;;;10.80;68.62;98660.28;5015896;28;20463;-73
2022/09/22 08:55:56;;;;;;;8.07;6.33;;;10.80;80.40;;;11.02;68.29;98667.25;5064714;28;20470;-71
2022/09/22 08:58:39;;;;;;;8.27;7.10;;;11.00;80.40;;;10.87;68.36;98661.19;5060672;28;20543;-74
2022/09/22 09:01:28;;;;;;;7.83;7.03;;;11.10;80.20;;;10.98;67.79;98674.09;5091749;28;20561;-70
2022/09/22 09:04:11;;;;;;;7.83;7.03;;;11.10;79.70;;;10.88;68.81;98669.06;5062108;28;20545;-76
2022/09/22 09:06:52;;;;;;;8.10;6.40;;;11.10;80.30;;;11.24;66.19;98669.81;5092848;28;20559;-74
2022/09/22 09:09:41;;;;;;;9.50;6.00;;;11.30;79.20;;;11.46;66.42;98675.09;5065862;28;20520;-72
2022/09/22 09:12:45;;;;;;;6.93;6.23;;;11.40;79.20;;;11.69;65.80;98663.03;5061954;28;20937;-77
2022/09/22 09:15:29;;;;;;;6.37;5.50;;;11.70;79.30;;;11.73;65.50;98669.69;5064662;28;20462;-72
2022/09/22 09:18:02;;;;;;;6.90;5.40;;;11.80;78.70;;;11.89;64.74;98671.16;5054738;28;20978;-73
2022/09/22 09:20:38;;;;;;;7.30;6.57;;;11.90;78.30;;;12.02;64.86;98663.09;5047845;28;21011;-75
2022/09/22 09:23:16;;;;;;;7.30;6.30;;;12.00;78.20;;;12.17;63.80;98657.44;5063886;28;20475;-71
2022/09/22 09:25:46;;;;;;;10.17;6.20;;;12.10;77.90;;;12.40;63.88;98664.28;5071838;28;20483;-73
2022/09/22 09:28:18;;;;;;;7.33;5.57;;;12.30;78.20;;;12.54;62.97;98654.22;5061644;28;20462;-76
2022/09/22 09:30:50;;;;;;;6.80;4.83;;;12.50;77.40;;;12.67;61.93;98658.81;5057953;28;20474;-76
2022/09/22 09:33:27;;;;;;;7.53;5.87;;;12.60;76.70;;;12.47;62.57;98653.44;5063495;28;20471;-75
2022/09/22 09:35:55;;;;;;;6.90;4.93;;;12.60;76.50;;;12.55;62.36;98655.06;5088408;28;20645;-74
2022/09/22 09:38:29;;;;;;;6.80;5.17;;;12.60;76.30;;;12.73;61.31;98654.38;5085807;28;20460;-74
2022/09/22 09:41:09;;;;;;;5.03;4.63;;;12.70;75.80;;;12.75;60.76;98647.69;5059133;28;20548;-71
2022/09/22 09:43:41;;;;;;;6.70;4.87;;;12.80;75.30;;;12.89;61.36;98650.38;5060216;28;20471;-77
2022/09/22 09:46:23;;;;;;;4.70;4.27;;;12.90;75.60;;;13.14;59.96;98650.44;5051406;28;20600;-75
2022/09/22 09:49:05;;;;;;;5.20;4.70;;;13.10;74.90;;;13.39;59.25;98648.84;5056477;28;21252;-71
2022/09/22 09:51:35;;;;;;;5.90;4.30;;;13.30;74.70;;;13.35;58.53;98645.75;5054067;28;20456;-77
2022/09/22 09:54:08;;;;;;;6.47;4.07;;;13.40;73.50;;;12.96;57.79;98580.63;5054372;28;20570;-71
2022/09/22 09:56:36;;;;;;;5.53;3.87;;;13.40;72.70;;;13.45;57.23;98648.03;5082203;28;20449;-72
2022/09/22 10:01:56;;;;;;;5.47;4.37;;;13.70;72.50;;;13.76;56.81;98631.91;5052660;28;20998;-72
2022/09/22 10:04:33;;;;;;;3.83;3.50;;;14.00;72.00;;;13.91;56.71;98645.19;5056658;28;20854;-70
2022/09/22 10:07:14;;;;;;;4.07;3.70;;;14.00;71.20;;;13.91;55.50;98631.59;5056804;28;20546;-74
2022/09/22 10:09:44;;;;;;;3.67;3.37;;;14.10;70.20;;;14.15;55.62;98625.31;5051006;28;20972;-78
2022/09/22 10:12:26;;;;;;;4.80;3.37;;;14.20;70.30;;;13.97;55.41;98630.69;5056392;28;20471;-73
2022/09/22 10:14:56;;;;;;;4.17;3.80;;;14.20;69.20;;;14.21;55.39;98622.75;5056995;28;20479;-81
2022/09/22 10:17:28;;;;;;;3.40;3.10;;;14.20;69.60;;;14.41;53.07;98617.94;5059670;28;20468;-74
2022/09/22 10:20:19;;;;;;;3.40;3.10;;;14.50;67.70;;;14.57;52.71;98615.66;5053132;28;20531;-71
2022/09/22 10:22:48;;;;;;;2.80;2.53;;;14.60;67.00;;;14.76;52.47;98619.25;5056899;28;20464;-73
2022/09/22 10:25:24;;;;;;;3.50;2.63;;;14.80;67.20;;;14.90;52.79;98608.22;5050564;28;20489;-74
2022/09/22 10:28:05;;;;;;;2.50;2.30;;;15.00;66.80;;;15.10;50.07;98605.22;5060287;28;20520;-72
2022/09/22 10:30:36;;;;;;;3.30;2.20;;;15.20;65.10;;;15.20;49.65;98607.38;5056734;28;20462;-71
2022/09/22 10:33:16;;;;;;;2.70;2.03;;;15.20;63.50;;;15.33;48.70;98595.47;5059969;28;20468;-76
2022/09/22 10:35:46;;;;;;;2.20;1.30;;;15.50;62.70;;;15.33;46.06;98601.75;5055716;28;20547;-82
2022/09/22 10:38:21;;;;;;;1.97;1.77;;;15.50;59.80;;;15.06;46.56;98602.13;5062379;28;20528;-77
2022/09/22 10:40:56;;;;;;;3.00;1.80;;;15.30;58.70;;;15.07;47.54;98606.50;5060801;28;20467;-78
2022/09/22 10:43:43;;;;;;;2.40;1.60;;;15.30;59.40;;;15.81;46.51;98599.94;5059342;28;20471;-78
2022/09/22 10:46:34;;;;;;;1.53;1.43;;;15.70;59.60;;;15.83;45.87;98595.06;5051779;28;20476;-73
2022/09/22 10:49:11;;;;;;;2.03;1.23;;;16.00;58.90;;;16.22;43.75;98596.53;5085436;28;20457;-70
2022/09/22 10:51:54;;;;;;;2.83;1.63;;;16.30;57.30;;;16.53;46.70;98594.47;5052042;28;20465;-74
2022/09/22 10:54:53;;;;;;;4.10;1.63;;;16.50;59.30;;;16.37;43.93;98588.69;5062692;28;20453;-73
2022/09/22 10:57:46;;;;;;;2.40;1.33;;;16.60;56.10;;;16.27;44.09;98588.47;5065456;28;20489;-72
2022/09/22 11:00:17;;;;;;;1.60;1.50;;;16.50;56.10;;;16.75;43.64;98589.19;5050745;28;21647;-79